Ride Results

Tenterfield (05-05-2018)
Ride distance: 80.0 km

Outcomes - Tenterfield (05-05-2018)
Division No. of Entries Retired / DNE Completed Withdrawn Ineligible V/O Percentage Completed
HW 2 - 2 - - - 100.00%
MW 8 - 8 - - - 100.00%
LW 7 - 6 - - 1 85.71%
JN 3 - 3 - - - 100.00%
Totals 20 - 19 - - 1 95.00%
Results - Tenterfield (05-05-2018)
No. Rider Horse Place Time Leg Speeds Total
Km/Hr
H/R bpm
Heavyweight
135 Greg Lyon Chingford Just Dreaming 1 (BC) 4:50:30 17.1, 15.9 16.52 36, 42, 47 (Avg:44)
133 Tami Parnell Zuhra Zaleksii 2 6:55:47 11.8, 11.2 11.54 34, 45, 47 (Avg:46)
Middleweight
115 Rosemary Hull Dee Zyne Wizz Kid 1 (BC) 4:34:18 17.1, 17.8 17.50 33, 45, 44 (Avg:44)
120 Christopher Schofield Briallyn Alimah 2 6:08:23 14.7, 11.6 13.03 40, 49, 48 (Avg:48)
134 Jill Free Kadar Silkk 3 6:08:25 14.7, 11.6 13.03 41, 42, 48 (Avg:45)
116 Fiona Fenech Aqaba Bronson 4 6:29:34 11.8, 12.8 12.32 43, 44, 47 (Avg:45)
125 Dean Chamberlain Talika Showdown 5 6:30:49 13.1, 11.5 12.28 29, 39, 43 (Avg:41)
123 Jo Hamilton-Branigan Kholonial Boadecia 6 8:00:41 10.8, 9.2 9.99 33, 42, 48 (Avg:45)
122 Mel Singleton Kholonial Beauzolais 7 8:00:45 10.8, 9.2 9.98 36, 40, 50 (Avg:45)
129 Bec Cronin Petama Springtime Jewel 8 9:00:00 9.5, 8.3 8.89 33, 51, 59 (Avg:55)
Lightweight
128 Debra McQueen Kynnum Park Mr Epona 1 (BC) 5:37:59 15.5, 13.1 14.20 33, 44, 44 (Avg:44)
127 Adrian Brickley Cameo Crimzon Moon 2 5:55:17 13.1, 13.8 13.51 40, 43, 48 (Avg:45)
131 Di Kupsch Fortaleza Ascira 3 6:10:40 12.3, 13.5 12.95 24, 36, 44 (Avg:40)
121 Xanthe Webb Danic Park Maahallo 4 6:17:36 13.1, 12.2 12.71 33, 42, 47 (Avg:44)
141 Tracey Hutchinson Woodbourne Wednesday 5 6:55:44 11.8, 11.2 11.55 40, 44, 50 (Avg:47)
132 Jenny Thompson Shamira 6 8:00:00 9.5, 10.4 10.00 33, 42, 51 (Avg:46)
114 Renee Trunley Misty Day Lame L1 0:00:00 9.5 - 49, 51 (Avg:51)
Junior
118 Louis Ryan Manet Ibn Rashan 1 (BC) 4:34:20 17.1, 17.8 17.50 39, 48, 48 (Avg:48)
124 Aimee Jeffrey Annordean Lady Annette 2 6:30:52 13.1, 11.5 12.28 32, 33, 38 (Avg:35)
126 Molly Choyce Abberlyn Park Astanna 3 7:49:42 9.5, 10.9 10.22 37, 41, 49 (Avg:45)